Terminal Aerodrome Forecast
Issued by NWS

Home | Current Version | Previous Version | Text Only | Print | Product List | Glossary On
Versions: 1 2 3 4 5 6 7 8 9 10 11 12 13 14 15 16
000
FTUS43 KGRR 290500
TAFLAN
TAF
KLAN 290540Z 2906/3006 16013G21KT P6SM OVC120 WS020/21050KT
     FM290800 16014G22KT 5SM -FZRAPL OVC035 WS020/21050KT
     FM291000 17014KT 3SM -FZRAPL OVC015
     FM291300 21008KT 1SM -SNPL BR OVC009
     FM291900 30015G25KT 5SM -SHSN OVC015=

USA.gov is the U.S. government's official web portal to all federal, state and local government web resources and services.